createdAt,value
2023-03-02T00:01:10.758Z,5.55
2023-03-02T00:03:41.047Z,5.56
2023-03-02T00:06:09.278Z,5.60
2023-03-02T00:08:37.442Z,5.66
2023-03-02T00:11:04.448Z,5.65
2023-03-02T00:13:34.286Z,5.66
2023-03-02T00:16:01.133Z,5.62
2023-03-02T00:18:27.905Z,5.69
2023-03-02T00:20:54.631Z,5.60
2023-03-02T00:23:21.303Z,5.59
2023-03-02T00:25:47.997Z,5.59
2023-03-02T00:28:14.630Z,5.61
2023-03-02T00:30:41.489Z,5.66
2023-03-02T00:33:08.224Z,5.50
2023-03-02T00:35:41.972Z,5.59
2023-03-02T00:38:09.274Z,5.65
2023-03-02T00:40:36.489Z,5.53
2023-03-02T00:43:03.364Z,5.58
2023-03-02T00:45:30.733Z,5.55
2023-03-02T00:47:58.314Z,5.61
2023-03-02T00:50:25.262Z,5.58
2023-03-02T00:52:52.054Z,5.58
2023-03-02T00:55:18.897Z,5.56
2023-03-02T00:57:54.884Z,5.46
2023-03-02T01:00:29.280Z,5.47
2023-03-02T01:03:00.229Z,5.53
2023-03-02T01:05:27.613Z,5.47
2023-03-02T01:07:54.499Z,5.41
2023-03-02T01:10:21.239Z,5.44
2023-03-02T01:12:48.007Z,5.48
2023-03-02T01:15:14.823Z,5.42
2023-03-02T01:17:42.958Z,5.51
2023-03-02T01:20:11.051Z,5.46
2023-03-02T01:22:37.861Z,5.50
2023-03-02T01:25:05.111Z,5.55
2023-03-02T01:27:32.009Z,5.40
2023-03-02T01:29:58.718Z,5.49
2023-03-02T01:32:25.737Z,5.43
2023-03-02T01:34:52.418Z,5.60
2023-03-02T01:37:20.841Z,5.48
2023-03-02T01:39:47.611Z,5.46
2023-03-02T01:42:14.373Z,5.42
2023-03-02T01:44:48.743Z,5.51
2023-03-02T01:47:24.418Z,5.56
2023-03-02T01:50:06.329Z,5.48
2023-03-02T01:52:38.549Z,5.51
2023-03-02T01:55:10.338Z,5.48
2023-03-02T01:57:43.824Z,5.51
2023-03-02T02:00:19.432Z,5.56
2023-03-02T02:02:47.724Z,5.46
2023-03-02T02:05:21.533Z,5.53
2023-03-02T02:07:48.688Z,5.64
2023-03-02T02:10:16.385Z,5.68
2023-03-02T02:12:43.291Z,5.61
2023-03-02T02:15:10.458Z,5.62
2023-03-02T02:17:37.168Z,5.72
2023-03-02T02:20:24.107Z,5.70
2023-03-02T02:23:12.168Z,5.71
2023-03-02T02:26:01.925Z,5.74
2023-03-02T02:28:52.055Z,5.79
2023-03-02T02:31:26.643Z,5.88
2023-03-02T02:33:58.439Z,5.91
2023-03-02T02:36:34.716Z,5.82
2023-03-02T02:39:08.570Z,5.82
2023-03-02T02:41:39.235Z,5.78
2023-03-02T02:44:06.588Z,5.78
2023-03-02T02:46:34.024Z,5.75
2023-03-02T02:49:02.587Z,5.66
2023-03-02T02:51:30.183Z,5.62
2023-03-02T02:54:00.194Z,5.54
2023-03-02T02:56:35.390Z,5.60
2023-03-02T02:59:10.120Z,5.62
2023-03-02T03:01:37.044Z,5.60
2023-03-02T03:04:05.967Z,5.63
2023-03-02T03:06:42.451Z,5.58
2023-03-02T03:09:12.335Z,5.69
2023-03-02T03:11:46.564Z,5.60
2023-03-02T03:14:15.476Z,5.58
2023-03-02T03:16:46.216Z,5.45
2023-03-02T03:19:19.876Z,5.55
2023-03-02T03:21:50.709Z,5.39
2023-03-02T03:24:18.801Z,5.47
2023-03-02T03:26:46.646Z,5.45
2023-03-02T03:29:14.988Z,5.52
2023-03-02T03:31:42.047Z,5.48
2023-03-02T03:34:09.651Z,5.51
2023-03-02T03:36:37.513Z,5.44
2023-03-02T03:39:06.074Z,5.45
2023-03-02T03:41:33.445Z,5.50
2023-03-02T03:44:00.841Z,5.29
2023-03-02T03:46:30.478Z,5.44
2023-03-02T03:48:57.633Z,5.38
2023-03-02T03:51:25.242Z,5.48
2023-03-02T03:54:01.561Z,5.38
2023-03-02T03:56:42.937Z,5.46
2023-03-02T03:59:13.748Z,5.43
2023-03-02T04:01:56.649Z,5.40
2023-03-02T04:04:32.454Z,5.45
2023-03-02T04:07:00.252Z,5.50
2023-03-02T04:09:27.210Z,5.30
2023-03-02T04:11:56.737Z,5.34
2023-03-02T04:14:25.228Z,5.37
2023-03-02T04:16:53.837Z,5.39
2023-03-02T04:19:22.753Z,5.34
2023-03-02T04:21:55.004Z,5.27
2023-03-02T04:24:23.606Z,5.23
2023-03-02T04:26:52.608Z,5.12
2023-03-02T04:29:20.638Z,5.10
2023-03-02T04:31:48.455Z,5.06
2023-03-02T04:34:16.459Z,5.09
2023-03-02T04:36:45.082Z,5.07
2023-03-02T04:39:16.511Z,5.09
2023-03-02T04:41:47.051Z,5.14
2023-03-02T04:44:14.790Z,5.06
2023-03-02T04:46:44.673Z,5.07
2023-03-02T04:49:12.269Z,5.15
2023-03-02T04:51:41.694Z,5.09
2023-03-02T04:54:15.026Z,5.14
2023-03-02T04:56:41.842Z,5.12
2023-03-02T04:59:08.563Z,5.14
2023-03-02T05:01:35.300Z,5.14
2023-03-02T05:04:03.116Z,5.15
2023-03-02T05:06:30.278Z,5.05
2023-03-02T05:08:59.857Z,5.10
2023-03-02T05:11:26.795Z,5.09
2023-03-02T05:13:58.036Z,4.93
2023-03-02T05:16:29.235Z,4.98
2023-03-02T05:18:56.088Z,4.99
2023-03-02T05:21:23.907Z,4.90
2023-03-02T05:23:51.424Z,4.85
2023-03-02T05:26:18.305Z,4.81
2023-03-02T05:28:45.278Z,4.83
2023-03-02T05:31:19.294Z,4.64
2023-03-02T05:33:46.521Z,4.70
2023-03-02T05:36:13.277Z,4.65
2023-03-02T05:38:40.018Z,4.61
2023-03-02T05:41:06.772Z,4.59
2023-03-02T05:43:33.478Z,4.55
2023-03-02T05:46:00.656Z,4.58
2023-03-02T05:48:29.543Z,4.60
2023-03-02T05:50:56.636Z,4.58
2023-03-02T05:53:23.822Z,4.50
2023-03-02T05:55:51.642Z,4.45
2023-03-02T05:58:20.049Z,4.32
2023-03-02T06:00:48.135Z,4.27
2023-03-02T06:03:15.823Z,4.22
2023-03-02T06:05:42.808Z,4.20
2023-03-02T06:08:10.010Z,4.09
2023-03-02T06:10:36.799Z,4.02
2023-03-02T06:13:03.628Z,4.08
2023-03-02T06:15:30.397Z,4.06
2023-03-02T06:17:57.809Z,4.02
2023-03-02T06:20:24.926Z,4.02
2023-03-02T06:22:51.718Z,4.01
2023-03-02T06:25:21.386Z,4.03
2023-03-02T06:27:52.490Z,4.07
2023-03-02T06:30:22.278Z,4.09
2023-03-02T06:32:49.374Z,4.19
2023-03-02T06:35:17.304Z,4.20
2023-03-02T06:37:44.588Z,4.17
2023-03-02T06:40:13.966Z,4.20
2023-03-02T06:42:42.073Z,4.21
2023-03-02T06:45:10.002Z,4.23
2023-03-02T06:47:36.946Z,4.29
2023-03-02T06:50:04.548Z,4.33
2023-03-02T06:52:31.363Z,4.37
2023-03-02T06:54:58.037Z,4.44
2023-03-02T06:57:24.860Z,4.37
2023-03-02T06:59:51.569Z,4.42
2023-03-02T07:02:18.311Z,4.47
2023-03-02T07:04:44.961Z,4.42
2023-03-02T07:07:11.719Z,4.54
2023-03-02T07:09:38.421Z,4.51
2023-03-02T07:12:05.385Z,4.52
2023-03-02T07:14:32.065Z,4.53
2023-03-02T07:17:00.210Z,4.51
2023-03-02T07:19:27.032Z,4.58
2023-03-02T07:21:53.762Z,4.50
2023-03-02T07:24:20.545Z,4.64
2023-03-02T07:26:47.432Z,4.67
2023-03-02T07:29:14.100Z,4.65
2023-03-02T07:31:43.594Z,4.63
2023-03-02T07:34:10.338Z,4.74
2023-03-02T07:36:37.070Z,4.77
2023-03-02T07:39:04.530Z,4.82
2023-03-02T07:41:31.728Z,4.95
2023-03-02T07:43:58.651Z,4.95
2023-03-02T07:46:25.308Z,4.99
2023-03-02T07:48:52.026Z,4.87
2023-03-02T07:51:18.686Z,4.97
2023-03-02T07:53:45.397Z,4.80
2023-03-02T07:56:12.558Z,4.76
2023-03-02T07:58:39.408Z,4.86
2023-03-02T08:01:06.599Z,4.82
2023-03-02T08:03:33.291Z,4.82
2023-03-02T08:06:11.386Z,4.90
2023-03-02T08:08:38.334Z,4.88
2023-03-02T08:11:13.372Z,4.97
2023-03-02T08:13:40.669Z,5.00
2023-03-02T08:16:09.629Z,5.10
2023-03-02T08:18:37.437Z,5.08
2023-03-02T08:21:05.076Z,5.18
2023-03-02T08:23:31.839Z,5.17
2023-03-02T08:25:58.566Z,5.13
2023-03-02T08:28:25.347Z,5.28
2023-03-02T08:30:57.703Z,5.21
2023-03-02T08:33:25.298Z,5.13
2023-03-02T08:36:00.575Z,5.18
2023-03-02T08:38:28.601Z,5.15
2023-03-02T08:40:55.589Z,5.15
2023-03-02T08:43:24.587Z,5.12
2023-03-02T08:45:56.732Z,5.13
2023-03-02T08:48:24.559Z,5.10
2023-03-02T08:51:13.254Z,5.05
2023-03-02T08:53:42.250Z,5.09
2023-03-02T08:56:25.431Z,5.22
2023-03-02T08:58:54.498Z,5.28
2023-03-02T09:01:23.863Z,5.26
2023-03-02T09:03:51.038Z,5.18
2023-03-02T09:06:17.816Z,5.25
2023-03-02T09:08:44.614Z,5.30
2023-03-02T09:11:11.398Z,5.36
2023-03-02T09:13:38.143Z,5.33
2023-03-02T09:16:06.419Z,5.36
2023-03-02T09:18:34.147Z,5.42
2023-03-02T09:21:01.120Z,5.51
2023-03-02T09:23:28.815Z,5.47
2023-03-02T09:25:55.688Z,5.41
2023-03-02T09:28:22.565Z,5.48
2023-03-02T09:30:51.535Z,5.49
2023-03-02T09:33:19.175Z,5.46
2023-03-02T09:35:46.771Z,5.45
2023-03-02T09:38:18.413Z,5.60
2023-03-02T09:41:02.456Z,5.69
2023-03-02T09:43:43.284Z,5.69
2023-03-02T09:46:36.342Z,5.73
2023-03-02T09:49:25.918Z,5.65
2023-03-02T09:51:55.612Z,5.70
2023-03-02T09:54:27.108Z,5.73
2023-03-02T09:56:57.266Z,5.83
2023-03-02T09:59:26.668Z,5.76
2023-03-02T10:02:01.413Z,5.84
2023-03-02T10:04:44.532Z,5.97
2023-03-02T10:07:29.331Z,6.08
2023-03-02T10:10:11.128Z,6.04
2023-03-02T10:13:02.551Z,6.11
2023-03-02T10:15:48.084Z,5.95
2023-03-02T10:18:23.469Z,5.95
2023-03-02T10:20:59.852Z,5.81
2023-03-02T10:23:31.075Z,5.73
2023-03-02T10:26:06.470Z,5.86
2023-03-02T10:28:41.427Z,5.98
2023-03-02T10:31:12.857Z,5.95
2023-03-02T10:33:40.537Z,6.16
2023-03-02T10:36:28.832Z,6.15
2023-03-02T10:38:57.672Z,6.13
2023-03-02T10:41:32.615Z,6.07
2023-03-02T10:44:08.077Z,6.20
2023-03-02T10:46:46.355Z,6.25
2023-03-02T10:49:34.232Z,6.36
2023-03-02T10:52:02.557Z,6.38
2023-03-02T10:54:31.766Z,6.69
2023-03-02T10:57:01.474Z,7.07
2023-03-02T10:59:39.940Z,7.40
2023-03-02T11:02:23.571Z,7.44
2023-03-02T11:04:59.452Z,7.53
2023-03-02T11:07:28.928Z,7.39
2023-03-02T11:10:19.465Z,7.46
2023-03-02T11:12:49.293Z,7.40
2023-03-02T11:15:44.788Z,7.47
2023-03-02T11:18:17.219Z,7.33
2023-03-02T11:20:48.020Z,7.29
2023-03-02T11:23:49.934Z,7.40
2023-03-02T11:26:27.890Z,7.10
2023-03-02T11:29:02.889Z,7.04
2023-03-02T11:32:09.755Z,7.04
2023-03-02T11:34:57.558Z,7.11
2023-03-02T11:37:34.887Z,7.06
2023-03-02T11:40:26.556Z,6.74
2023-03-02T11:42:57.046Z,6.71
2023-03-02T11:45:27.516Z,6.53
2023-03-02T11:48:03.601Z,6.45
2023-03-02T11:50:34.629Z,6.43
2023-03-02T11:53:06.538Z,6.36
2023-03-02T11:55:46.025Z,6.38
2023-03-02T11:58:19.435Z,6.45
2023-03-02T12:00:47.738Z,6.39
2023-03-02T12:03:17.422Z,6.26
2023-03-02T12:05:58.407Z,6.30
2023-03-02T12:08:25.112Z,6.28
2023-03-02T12:11:06.238Z,6.47
2023-03-02T12:13:38.424Z,6.57
2023-03-02T12:16:18.342Z,6.65
2023-03-02T12:18:49.622Z,6.69
2023-03-02T12:21:24.617Z,6.65
2023-03-02T12:23:51.277Z,6.58
2023-03-02T12:26:21.057Z,6.46
2023-03-02T12:29:24.316Z,6.26
2023-03-02T12:31:56.551Z,6.22
2023-03-02T12:34:26.149Z,6.38
2023-03-02T12:36:58.597Z,6.49
2023-03-02T12:40:03.293Z,6.58
2023-03-02T12:43:07.533Z,6.71
2023-03-02T12:45:55.863Z,6.79
2023-03-02T12:49:01.567Z,6.90
2023-03-02T12:51:32.358Z,6.91
2023-03-02T12:54:15.676Z,6.99
2023-03-02T12:56:42.654Z,6.95
2023-03-02T12:59:27.378Z,7.08
2023-03-02T13:02:20.803Z,7.10
2023-03-02T13:04:58.606Z,7.02
2023-03-02T13:07:28.595Z,6.97
2023-03-02T13:09:58.190Z,6.85
2023-03-02T13:12:29.385Z,6.84
2023-03-02T13:14:59.837Z,6.93
2023-03-02T13:17:32.594Z,7.02
2023-03-02T13:20:01.777Z,6.86
2023-03-02T13:22:29.317Z,6.96
2023-03-02T13:25:03.823Z,6.94
2023-03-02T13:27:31.394Z,6.86
2023-03-02T13:30:12.939Z,6.86
2023-03-02T13:32:43.269Z,7.06
2023-03-02T13:35:25.568Z,7.13
2023-03-02T13:38:01.185Z,7.11
2023-03-02T13:40:29.876Z,7.15
2023-03-02T13:42:56.749Z,7.14
2023-03-02T13:45:28.391Z,7.02
2023-03-02T13:47:59.036Z,7.10
2023-03-02T13:50:28.977Z,6.97
2023-03-02T13:52:57.693Z,7.08
2023-03-02T13:55:25.014Z,7.07
2023-03-02T13:57:53.480Z,6.99
2023-03-02T14:00:28.473Z,6.97
2023-03-02T14:02:55.167Z,7.06
2023-03-02T14:05:25.476Z,6.97
2023-03-02T14:07:52.928Z,6.97
2023-03-02T14:10:20.796Z,6.90
2023-03-02T14:13:02.173Z,6.85
2023-03-02T14:15:28.944Z,6.94
2023-03-02T14:17:55.768Z,6.96
2023-03-02T14:20:22.468Z,7.01
2023-03-02T14:22:50.556Z,6.94
2023-03-02T14:25:17.850Z,7.14
2023-03-02T14:27:47.195Z,7.02
2023-03-02T14:30:17.065Z,7.05
2023-03-02T14:32:43.744Z,6.91
2023-03-02T14:35:15.793Z,6.84
2023-03-02T14:37:48.328Z,6.88
2023-03-02T14:40:18.593Z,6.87
2023-03-02T14:42:45.367Z,6.81
2023-03-02T14:45:12.218Z,6.87
2023-03-02T14:47:38.900Z,6.87
2023-03-02T14:50:06.010Z,6.75
2023-03-02T14:52:37.462Z,6.91
2023-03-02T14:55:15.564Z,6.86
2023-03-02T14:57:42.315Z,6.86
2023-03-02T15:00:12.874Z,6.91
2023-03-02T15:02:39.877Z,6.94
2023-03-02T15:05:07.302Z,6.91
2023-03-02T15:07:34.090Z,6.91
2023-03-02T15:10:01.277Z,6.87
2023-03-02T15:12:28.096Z,6.85
2023-03-02T15:14:54.816Z,6.80
2023-03-02T15:17:21.665Z,6.83
2023-03-02T15:19:48.450Z,6.81
2023-03-02T15:22:15.796Z,6.70
2023-03-02T15:24:42.542Z,6.63
2023-03-02T15:27:09.234Z,6.69
2023-03-02T15:29:36.009Z,6.62
2023-03-02T15:32:02.919Z,6.67
2023-03-02T15:34:29.733Z,6.58
2023-03-02T15:36:56.407Z,6.51
2023-03-02T15:39:23.143Z,6.57
2023-03-02T15:41:51.214Z,6.59
2023-03-02T15:44:22.216Z,6.40
2023-03-02T15:46:49.850Z,6.54
2023-03-02T15:49:17.098Z,6.56
2023-03-02T15:51:43.778Z,6.54
2023-03-02T15:54:11.781Z,6.44
2023-03-02T15:56:44.230Z,6.49
2023-03-02T15:59:11.941Z,6.50
2023-03-02T16:01:38.837Z,6.55
2023-03-02T16:04:05.583Z,6.51
2023-03-02T16:06:32.248Z,6.48
2023-03-02T16:08:58.904Z,6.38
2023-03-02T16:11:25.650Z,6.32
2023-03-02T16:13:52.537Z,6.32
2023-03-02T16:16:20.451Z,6.29
2023-03-02T16:18:56.359Z,6.29
2023-03-02T16:21:24.390Z,6.32
2023-03-02T16:23:52.619Z,6.26
2023-03-02T16:26:21.331Z,6.34
2023-03-02T16:28:48.641Z,6.31
2023-03-02T16:31:19.008Z,6.27
2023-03-02T16:33:47.212Z,6.21
2023-03-02T16:36:14.809Z,6.35
2023-03-02T16:38:42.014Z,6.27
2023-03-02T16:41:15.501Z,6.30
2023-03-02T16:43:50.140Z,6.32
2023-03-02T16:46:17.735Z,6.30
2023-03-02T16:48:45.584Z,6.28
2023-03-02T16:51:13.421Z,6.25
2023-03-02T16:53:43.438Z,6.33
2023-03-02T16:56:11.957Z,6.29
2023-03-02T16:58:39.885Z,6.28
2023-03-02T17:01:08.549Z,6.26
2023-03-02T17:03:35.892Z,6.25
2023-03-02T17:06:02.727Z,6.26
2023-03-02T17:08:29.428Z,6.29
2023-03-02T17:10:56.141Z,6.19
2023-03-02T17:13:23.024Z,6.23
2023-03-02T17:15:49.864Z,6.29
2023-03-02T17:18:17.228Z,6.25
2023-03-02T17:20:43.956Z,6.26
2023-03-02T17:23:12.441Z,6.21
2023-03-02T17:25:40.088Z,6.28
2023-03-02T17:28:06.946Z,6.22
2023-03-02T17:30:34.362Z,6.26
2023-03-02T17:33:01.032Z,6.21
2023-03-02T17:35:27.785Z,6.16
2023-03-02T17:37:54.572Z,6.20
2023-03-02T17:40:21.549Z,6.20
2023-03-02T17:42:48.208Z,6.07
2023-03-02T17:45:20.280Z,6.11
2023-03-02T17:47:49.081Z,6.11
2023-03-02T17:50:16.669Z,6.09
2023-03-02T17:52:43.623Z,6.07
2023-03-02T17:55:11.972Z,6.05
2023-03-02T17:57:38.813Z,6.12
2023-03-02T18:00:10.633Z,6.11
2023-03-02T18:02:37.332Z,6.08
2023-03-02T18:05:04.508Z,6.09
2023-03-02T18:07:31.451Z,6.09
2023-03-02T18:10:00.919Z,5.89
2023-03-02T18:12:27.680Z,5.97
2023-03-02T18:14:54.324Z,5.84
2023-03-02T18:17:21.519Z,6.07
2023-03-02T18:19:48.494Z,5.90
2023-03-02T18:22:15.526Z,6.00
2023-03-02T18:24:44.754Z,6.07
2023-03-02T18:27:11.559Z,6.00
2023-03-02T18:29:38.200Z,5.89
2023-03-02T18:32:05.583Z,6.02
2023-03-02T18:34:32.380Z,5.98
2023-03-02T18:36:59.062Z,5.99
2023-03-02T18:39:26.139Z,5.97
2023-03-02T18:41:53.327Z,5.99
2023-03-02T18:44:20.830Z,5.98
2023-03-02T18:46:47.638Z,5.93
2023-03-02T18:49:14.412Z,5.95
2023-03-02T18:51:41.130Z,5.95
2023-03-02T18:54:08.083Z,5.91
2023-03-02T18:56:34.801Z,5.90
2023-03-02T18:59:04.996Z,5.75
2023-03-02T19:01:32.049Z,5.80
2023-03-02T19:04:00.702Z,5.84
2023-03-02T19:06:28.067Z,5.87
2023-03-02T19:08:55.113Z,5.88
2023-03-02T19:11:22.193Z,5.84
2023-03-02T19:13:48.804Z,5.83
2023-03-02T19:16:17.271Z,5.77
2023-03-02T19:18:45.046Z,5.83
2023-03-02T19:21:11.710Z,5.84
2023-03-02T19:23:38.551Z,5.81
2023-03-02T19:26:05.411Z,5.86
2023-03-02T19:28:34.070Z,5.77
2023-03-02T19:31:06.886Z,5.86
2023-03-02T19:33:33.953Z,5.85
2023-03-02T19:36:00.851Z,5.91
2023-03-02T19:38:29.399Z,5.91
2023-03-02T19:40:58.089Z,5.91
2023-03-02T19:43:25.880Z,5.91
2023-03-02T19:45:52.964Z,5.91
2023-03-02T19:48:20.519Z,5.87
2023-03-02T19:50:47.520Z,5.88
2023-03-02T19:53:19.365Z,5.84
2023-03-02T19:55:49.293Z,5.83
2023-03-02T19:58:19.891Z,5.81
2023-03-02T20:00:47.249Z,5.78
2023-03-02T20:03:14.033Z,5.84
2023-03-02T20:05:40.818Z,5.85
2023-03-02T20:08:08.786Z,5.84
2023-03-02T20:10:41.935Z,5.79
2023-03-02T20:13:09.637Z,5.71
2023-03-02T20:15:39.775Z,5.71
2023-03-02T20:18:08.887Z,5.80
2023-03-02T20:20:35.629Z,5.79
2023-03-02T20:23:04.148Z,5.85
2023-03-02T20:25:31.401Z,5.84
2023-03-02T20:27:58.618Z,5.76
2023-03-02T20:30:35.702Z,5.81
2023-03-02T20:33:04.233Z,5.65
2023-03-02T20:35:34.651Z,5.79
2023-03-02T20:38:02.888Z,5.75
2023-03-02T20:40:29.722Z,5.78
2023-03-02T20:42:56.566Z,5.65
2023-03-02T20:45:23.912Z,5.77
2023-03-02T20:47:50.851Z,5.75
2023-03-02T20:50:21.697Z,5.70
2023-03-02T20:52:48.477Z,5.75
2023-03-02T20:55:15.485Z,5.72
2023-03-02T20:57:42.311Z,5.75
2023-03-02T21:00:13.735Z,5.66
2023-03-02T21:02:40.350Z,5.73
2023-03-02T21:05:07.312Z,5.66
2023-03-02T21:07:35.847Z,5.62
2023-03-02T21:10:05.592Z,5.63
2023-03-02T21:12:33.305Z,5.69
2023-03-02T21:15:02.098Z,5.56
2023-03-02T21:17:30.768Z,5.60
2023-03-02T21:19:58.227Z,5.58
2023-03-02T21:22:25.048Z,5.65
2023-03-02T21:24:53.024Z,5.63
2023-03-02T21:27:20.233Z,5.68
2023-03-02T21:29:47.628Z,5.66
2023-03-02T21:32:14.541Z,5.50
2023-03-02T21:34:41.272Z,5.55
2023-03-02T21:37:07.968Z,5.51
2023-03-02T21:39:34.615Z,5.60
2023-03-02T21:42:01.378Z,5.56
2023-03-02T21:44:28.033Z,5.58
2023-03-02T21:46:54.856Z,5.71
2023-03-02T21:49:24.629Z,5.71
2023-03-02T21:51:51.453Z,5.74
2023-03-02T21:54:20.437Z,5.70
2023-03-02T21:56:47.216Z,5.65
2023-03-02T21:59:14.267Z,5.72
2023-03-02T22:01:41.166Z,5.69
2023-03-02T22:04:07.962Z,5.68
2023-03-02T22:06:35.371Z,5.72
2023-03-02T22:09:03.291Z,5.66
2023-03-02T22:11:33.843Z,5.76
2023-03-02T22:14:12.361Z,5.69
2023-03-02T22:16:41.539Z,5.66
2023-03-02T22:19:23.390Z,5.53
2023-03-02T22:21:50.532Z,5.59
2023-03-02T22:24:29.153Z,5.62
2023-03-02T22:27:05.337Z,5.67
2023-03-02T22:29:39.890Z,5.58
2023-03-02T22:32:35.983Z,5.38
2023-03-02T22:35:23.853Z,5.50
2023-03-02T22:37:55.780Z,5.45
2023-03-02T22:40:30.323Z,5.58
2023-03-02T22:43:12.265Z,5.56
2023-03-02T22:45:40.534Z,5.49
2023-03-02T22:48:14.696Z,5.48
2023-03-02T22:50:43.887Z,5.46
2023-03-02T22:53:21.383Z,5.55
2023-03-02T22:55:48.069Z,5.48
2023-03-02T22:58:17.725Z,5.38
2023-03-02T23:00:44.508Z,5.47
2023-03-02T23:03:19.343Z,5.47
2023-03-02T23:05:50.050Z,5.50
2023-03-02T23:08:22.917Z,5.53
2023-03-02T23:10:51.970Z,5.50
2023-03-02T23:13:21.900Z,5.57
2023-03-02T23:15:49.852Z,5.48
2023-03-02T23:18:28.704Z,5.57
2023-03-02T23:20:55.951Z,5.45
2023-03-02T23:23:24.403Z,5.24
2023-03-02T23:25:51.145Z,5.06
2023-03-02T23:28:17.823Z,5.10
2023-03-02T23:30:45.367Z,5.01
2023-03-02T23:33:12.161Z,4.85
2023-03-02T23:35:39.906Z,4.73
2023-03-02T23:38:06.697Z,4.56
2023-03-02T23:40:33.790Z,4.49
2023-03-02T23:43:00.555Z,4.40
2023-03-02T23:45:27.317Z,4.38
2023-03-02T23:47:54.039Z,4.27
2023-03-02T23:50:20.690Z,4.19
2023-03-02T23:52:47.523Z,4.15
2023-03-02T23:55:14.164Z,4.06
2023-03-02T23:57:40.991Z,3.97
